Terminal Aerodrome Forecast
Issued by NWS

Home | Current Version | Previous Version | Text Only | Print | Product List | Glossary On
Versions: 1 2 3 4 5 6 7 8 9 10 11 12 13 14 15 16 17 18 19 20 21 22 23 24 25 26 27 28
482
FTPQ31 PGUM 260315 AAI
TAFTYA
TAF AMD
PTYA 260315Z 2603/2624 10005KT 5SM SHRA BKN014 OVC100
      TEMPO 2603/2606 VRB05G15KT 3SM +SHRA BKN012 OVC030
     FM260700 08005KT P6SM VCSH SCT014 BKN130=

USA.gov is the U.S. government's official web portal to all federal, state and local government web resources and services.